createdAt,value
2017-01-28T00:00:13.115Z,1012.49
2017-01-28T00:00:39.235Z,1012.46
2017-01-28T00:01:05.396Z,1012.46
2017-01-28T00:01:31.565Z,1012.46
2017-01-28T00:01:57.699Z,1012.44
2017-01-28T00:02:23.834Z,1012.41
2017-01-28T00:02:49.928Z,1012.43
2017-01-28T00:03:16.126Z,1012.44
2017-01-28T00:03:42.247Z,1012.44
2017-01-28T00:04:08.367Z,1012.42
2017-01-28T00:04:34.479Z,1012.4
2017-01-28T00:05:00.670Z,1012.42
2017-01-28T00:05:26.804Z,1012.4
2017-01-28T00:05:52.935Z,1012.39
2017-01-28T00:06:19.064Z,1012.39
2017-01-28T00:06:45.181Z,1012.35
2017-01-28T00:07:11.303Z,1012.35
2017-01-28T00:07:37.474Z,1012.34
2017-01-28T00:08:03.563Z,1012.37
2017-01-28T00:08:29.723Z,1012.33
2017-01-28T00:08:55.845Z,1012.31
2017-01-28T00:09:21.998Z,1012.33
2017-01-28T00:09:48.134Z,1012.32
2017-01-28T00:10:14.269Z,1012.33
2017-01-28T00:10:40.507Z,1012.3
2017-01-28T00:11:06.608Z,1012.33
2017-01-28T00:11:32.741Z,1012.31
2017-01-28T00:11:58.915Z,1012.33
2017-01-28T00:12:25.072Z,1012.27
2017-01-28T00:12:51.224Z,1012.31
2017-01-28T00:13:17.402Z,1012.28
2017-01-28T00:13:43.518Z,1012.28
2017-01-28T00:14:09.711Z,1012.27
2017-01-28T00:14:35.945Z,1012.22
2017-01-28T00:15:02.061Z,1012.25
2017-01-28T00:15:28.181Z,1012.21
2017-01-28T00:15:54.371Z,1012.21
2017-01-28T00:16:20.546Z,1012.17
2017-01-28T00:16:46.900Z,1012.23
2017-01-28T00:17:13.082Z,1012.18
2017-01-28T00:17:39.238Z,1012.17
2017-01-28T00:18:05.326Z,1012.18
2017-01-28T00:18:31.465Z,1012.22
2017-01-28T00:18:57.598Z,1012.14
2017-01-28T00:19:23.724Z,1012.13
2017-01-28T00:19:49.867Z,1012.14
2017-01-28T00:20:15.954Z,1012.17
2017-01-28T00:20:42.184Z,1012.15
2017-01-28T00:21:08.349Z,1012.14
2017-01-28T00:21:34.541Z,1012.12
2017-01-28T00:22:00.679Z,1012.13
2017-01-28T00:22:26.868Z,1012.12
2017-01-28T00:22:53.040Z,1012.1
2017-01-28T00:23:19.173Z,1012.08
2017-01-28T00:23:45.303Z,1012.1
2017-01-28T00:24:11.431Z,1012.12
2017-01-28T00:24:37.531Z,1012.08
2017-01-28T00:25:03.647Z,1012.07
2017-01-28T00:25:29.795Z,1012.08
2017-01-28T00:25:56.016Z,1012.06
2017-01-28T00:26:22.104Z,1012.05
2017-01-28T00:26:48.238Z,1012.04
2017-01-28T00:27:14.350Z,1012.04
2017-01-28T00:27:40.517Z,1012.05
2017-01-28T00:28:06.617Z,1012.03
2017-01-28T00:28:32.784Z,1012.03
2017-01-28T00:28:58.930Z,1012.05
2017-01-28T00:29:25.094Z,1012.04
2017-01-28T00:29:51.198Z,1012.05
2017-01-28T00:30:17.411Z,1012.06
2017-01-28T00:30:43.575Z,1012.02
2017-01-28T00:31:09.679Z,1012.01
2017-01-28T00:31:35.861Z,1012.04
2017-01-28T00:32:02.049Z,1012.04
2017-01-28T00:32:57.984Z,1012.02
2017-01-28T00:33:24.126Z,1011.95
2017-01-28T00:33:50.244Z,1011.97
2017-01-28T00:34:16.464Z,1011.95
2017-01-28T00:34:42.644Z,1012
2017-01-28T00:35:08.704Z,1011.95
2017-01-28T00:35:34.825Z,1011.98
2017-01-28T00:36:00.992Z,1011.95
2017-01-28T00:36:27.165Z,1011.96
2017-01-28T00:36:53.284Z,1011.99
2017-01-28T00:37:19.464Z,1011.97
2017-01-28T00:37:45.609Z,1011.97
2017-01-28T00:38:11.814Z,1011.97
2017-01-28T00:38:37.950Z,1011.96
2017-01-28T00:39:04.081Z,1011.98
2017-01-28T00:39:30.175Z,1011.95
2017-01-28T00:39:56.311Z,1011.99
2017-01-28T00:40:22.603Z,1011.95
2017-01-28T00:40:48.763Z,1011.96
2017-01-28T00:41:14.864Z,1011.97
2017-01-28T00:41:40.972Z,1011.94
2017-01-28T00:42:07.099Z,1011.96
2017-01-28T00:42:33.309Z,1011.98
2017-01-28T00:42:59.500Z,1011.94
2017-01-28T00:43:25.726Z,1011.95
2017-01-28T00:43:51.892Z,1011.97
2017-01-28T00:44:18.040Z,1011.96
2017-01-28T00:44:44.172Z,1011.93
2017-01-28T00:45:10.297Z,1011.92
2017-01-28T00:45:36.510Z,1011.88
2017-01-28T00:46:02.689Z,1011.92
2017-01-28T00:46:28.856Z,1011.93
2017-01-28T00:46:55.024Z,1011.88
2017-01-28T00:47:21.227Z,1011.92
2017-01-28T00:47:47.376Z,1011.93
2017-01-28T00:48:13.514Z,1011.91
2017-01-28T00:48:39.597Z,1011.87
2017-01-28T00:49:05.723Z,1011.84
2017-01-28T00:49:31.916Z,1011.9
2017-01-28T00:49:58.030Z,1011.89
2017-01-28T00:50:24.136Z,1011.87
2017-01-28T00:50:50.300Z,1011.87
2017-01-28T00:51:16.472Z,1011.86
2017-01-28T00:51:42.587Z,1011.88
2017-01-28T00:52:08.727Z,1011.87
2017-01-28T00:52:34.880Z,1011.86
2017-01-28T00:53:00.990Z,1011.88
2017-01-28T00:53:27.156Z,1011.91
2017-01-28T00:53:53.314Z,1011.87
2017-01-28T00:54:19.481Z,1011.87
2017-01-28T00:54:45.642Z,1011.85
2017-01-28T00:55:11.857Z,1011.89
2017-01-28T00:55:38.015Z,1011.87
2017-01-28T00:56:04.168Z,1011.89
2017-01-28T00:56:30.283Z,1011.85
2017-01-28T00:56:56.482Z,1011.84
2017-01-28T00:57:22.656Z,1011.9
2017-01-28T00:57:48.828Z,1011.9
2017-01-28T00:58:14.959Z,1011.86
2017-01-28T00:58:41.059Z,1011.9
2017-01-28T00:59:07.244Z,1011.89
2017-01-28T00:59:33.337Z,1011.86
2017-01-28T00:59:59.475Z,1011.86
2017-01-28T01:00:25.618Z,1011.87
2017-01-28T01:00:51.716Z,1011.82
2017-01-28T01:01:17.843Z,1011.88
2017-01-28T01:01:44.000Z,1011.82
2017-01-28T01:02:10.120Z,1011.86
2017-01-28T01:02:36.232Z,1011.85
2017-01-28T01:03:02.402Z,1011.84
2017-01-28T01:03:28.647Z,1011.86
2017-01-28T01:03:54.813Z,1011.84
2017-01-28T01:04:20.940Z,1011.83
2017-01-28T01:04:47.061Z,1011.82
2017-01-28T01:05:13.257Z,1011.81
2017-01-28T01:05:39.406Z,1011.83
2017-01-28T01:06:05.595Z,1011.8
2017-01-28T01:06:31.795Z,1011.85
2017-01-28T01:06:57.930Z,1011.81
2017-01-28T01:07:24.018Z,1011.82
2017-01-28T01:07:50.183Z,1011.82
2017-01-28T01:08:16.339Z,1011.81
2017-01-28T01:08:42.461Z,1011.83
2017-01-28T01:09:08.650Z,1011.82
2017-01-28T01:09:34.825Z,1011.83
2017-01-28T01:10:00.920Z,1011.84
2017-01-28T01:10:27.084Z,1011.77
2017-01-28T01:10:53.191Z,1011.77
2017-01-28T01:11:19.312Z,1011.82
2017-01-28T01:11:45.483Z,1011.81
2017-01-28T01:12:11.632Z,1011.78
2017-01-28T01:12:37.757Z,1011.76
2017-01-28T01:13:03.918Z,1011.75
2017-01-28T01:13:30.028Z,1011.75
2017-01-28T01:13:56.174Z,1011.78
2017-01-28T01:14:22.322Z,1011.78
2017-01-28T01:14:48.420Z,1011.79
2017-01-28T01:15:14.575Z,1011.78
2017-01-28T01:15:40.771Z,1011.78
2017-01-28T01:16:06.891Z,1011.82
2017-01-28T01:16:33.080Z,1011.81
2017-01-28T01:16:59.169Z,1011.79
2017-01-28T01:17:25.286Z,1011.76
2017-01-28T01:17:51.430Z,1011.81
2017-01-28T01:18:17.615Z,1011.82
2017-01-28T01:18:43.795Z,1011.79
2017-01-28T01:19:09.912Z,1011.8
2017-01-28T01:19:36.039Z,1011.79
2017-01-28T01:20:02.152Z,1011.8
2017-01-28T01:20:28.287Z,1011.8
2017-01-28T01:20:54.428Z,1011.79
2017-01-28T01:21:20.565Z,1011.74
2017-01-28T01:21:46.665Z,1011.74
2017-01-28T01:22:12.753Z,1011.73
2017-01-28T01:22:38.883Z,1011.76
2017-01-28T01:23:05.012Z,1011.76
2017-01-28T01:23:31.148Z,1011.75
2017-01-28T01:23:57.281Z,1011.74
2017-01-28T01:24:23.409Z,1011.75
2017-01-28T01:24:49.555Z,1011.74
2017-01-28T01:25:15.731Z,1011.72
2017-01-28T01:25:41.901Z,1011.72
2017-01-28T01:26:08.028Z,1011.72
2017-01-28T01:26:34.166Z,1011.72
2017-01-28T01:27:00.322Z,1011.73
2017-01-28T01:27:26.446Z,1011.75
2017-01-28T01:27:52.593Z,1011.71
2017-01-28T01:28:18.700Z,1011.68
2017-01-28T01:28:44.861Z,1011.7
2017-01-28T01:29:11.004Z,1011.72
2017-01-28T01:29:37.204Z,1011.72
2017-01-28T01:30:03.329Z,1011.71
2017-01-28T01:30:29.449Z,1011.71
2017-01-28T01:30:55.643Z,1011.72
2017-01-28T01:31:21.808Z,1011.71
2017-01-28T01:31:47.919Z,1011.72
2017-01-28T01:32:14.014Z,1011.71
2017-01-28T01:32:40.113Z,1011.72
2017-01-28T01:33:06.249Z,1011.74
2017-01-28T01:33:32.432Z,1011.7
2017-01-28T01:33:58.571Z,1011.72
2017-01-28T01:34:24.736Z,1011.68
2017-01-28T01:34:50.931Z,1011.7
2017-01-28T01:35:17.018Z,1011.7
2017-01-28T01:35:43.120Z,1011.7
2017-01-28T01:36:09.285Z,1011.7
2017-01-28T01:36:35.403Z,1011.72
2017-01-28T01:37:01.500Z,1011.69
2017-01-28T01:37:27.695Z,1011.73
2017-01-28T01:37:53.846Z,1011.75
2017-01-28T01:38:20.036Z,1011.67
2017-01-28T01:38:46.182Z,1011.7
2017-01-28T01:39:12.355Z,1011.7
2017-01-28T01:39:38.518Z,1011.68
2017-01-28T01:40:04.616Z,1011.7
2017-01-28T01:40:30.734Z,1011.69
2017-01-28T01:40:56.921Z,1011.71
2017-01-28T01:41:23.043Z,1011.66
2017-01-28T01:41:49.191Z,1011.7
2017-01-28T01:42:15.297Z,1011.71
2017-01-28T01:42:41.417Z,1011.69
2017-01-28T01:43:07.531Z,1011.69
2017-01-28T01:43:33.723Z,1011.67
2017-01-28T01:43:59.849Z,1011.7
2017-01-28T01:44:25.953Z,1011.71
2017-01-28T01:44:52.078Z,1011.68
2017-01-28T01:45:18.164Z,1011.64
2017-01-28T01:45:44.332Z,1011.68
2017-01-28T01:46:10.431Z,1011.69
2017-01-28T01:46:36.530Z,1011.63
2017-01-28T01:47:02.656Z,1011.64
2017-01-28T01:47:28.754Z,1011.64
2017-01-28T01:47:54.871Z,1011.64
2017-01-28T01:48:21.006Z,1011.64
2017-01-28T01:48:47.172Z,1011.66
2017-01-28T01:49:13.358Z,1011.63
2017-01-28T01:49:39.492Z,1011.63
2017-01-28T01:50:05.623Z,1011.59
2017-01-28T01:50:31.787Z,1011.61
2017-01-28T01:50:57.882Z,1011.58
2017-01-28T01:51:24.030Z,1011.58
2017-01-28T01:51:50.196Z,1011.6
2017-01-28T01:52:16.357Z,1011.58
2017-01-28T01:52:42.543Z,1011.58
2017-01-28T01:53:08.666Z,1011.61
2017-01-28T01:53:34.831Z,1011.58
2017-01-28T01:54:00.984Z,1011.58
2017-01-28T01:54:27.117Z,1011.56
2017-01-28T01:54:53.233Z,1011.54
2017-01-28T01:55:19.380Z,1011.55
2017-01-28T01:55:45.521Z,1011.54
2017-01-28T01:56:11.630Z,1011.52
2017-01-28T01:56:37.812Z,1011.53
2017-01-28T01:57:03.977Z,1011.53
2017-01-28T01:57:30.095Z,1011.55
2017-01-28T01:57:56.269Z,1011.51
2017-01-28T01:58:22.400Z,1011.54
2017-01-28T01:58:48.530Z,1011.53
2017-01-28T01:59:14.618Z,1011.5
2017-01-28T01:59:40.802Z,1011.51
2017-01-28T02:00:06.899Z,1011.5
2017-01-28T02:00:33.037Z,1011.53
2017-01-28T02:00:59.155Z,1011.53
2017-01-28T02:01:25.275Z,1011.51
2017-01-28T02:01:51.439Z,1011.51
2017-01-28T02:02:17.617Z,1011.54
2017-01-28T02:02:43.735Z,1011.5
2017-01-28T02:03:09.867Z,1011.53
2017-01-28T02:03:35.965Z,1011.46
2017-01-28T02:04:02.080Z,1011.49
2017-01-28T02:04:28.260Z,1011.51
2017-01-28T02:04:54.423Z,1011.47
2017-01-28T02:05:20.544Z,1011.45
2017-01-28T02:05:46.700Z,1011.44
2017-01-28T02:06:12.787Z,1011.45
2017-01-28T02:06:38.960Z,1011.48
2017-01-28T02:07:05.057Z,1011.42
2017-01-28T02:07:31.208Z,1011.45
2017-01-28T02:07:57.338Z,1011.43
2017-01-28T02:08:23.469Z,1011.44
2017-01-28T02:08:49.657Z,1011.41
2017-01-28T02:09:15.817Z,1011.46
2017-01-28T02:09:41.924Z,1011.46
2017-01-28T02:10:08.039Z,1011.48
2017-01-28T02:10:34.183Z,1011.45
2017-01-28T02:11:00.286Z,1011.47
2017-01-28T02:11:26.412Z,1011.46
2017-01-28T02:11:52.554Z,1011.47
2017-01-28T02:12:18.728Z,1011.47
2017-01-28T02:12:44.848Z,1011.46
2017-01-28T02:13:10.966Z,1011.47
2017-01-28T02:13:37.132Z,1011.45
2017-01-28T02:14:03.278Z,1011.44
2017-01-28T02:14:29.400Z,1011.5
2017-01-28T02:14:55.560Z,1011.44
2017-01-28T02:15:21.727Z,1011.46
2017-01-28T02:15:47.833Z,1011.49
2017-01-28T02:16:13.908Z,1011.46
2017-01-28T02:16:40.047Z,1011.44
2017-01-28T02:17:06.163Z,1011.45
2017-01-28T02:17:32.321Z,1011.43
2017-01-28T02:17:58.455Z,1011.41
2017-01-28T02:18:24.584Z,1011.39
2017-01-28T02:18:50.772Z,1011.4
2017-01-28T02:19:16.863Z,1011.39
2017-01-28T02:19:42.995Z,1011.38
2017-01-28T02:20:09.130Z,1011.42
2017-01-28T02:20:35.272Z,1011.41
2017-01-28T02:21:01.422Z,1011.38
2017-01-28T02:21:27.589Z,1011.35
2017-01-28T02:21:53.712Z,1011.33
2017-01-28T02:22:19.874Z,1011.36
2017-01-28T02:22:46.007Z,1011.38
2017-01-28T02:23:12.193Z,1011.35
2017-01-28T02:23:38.334Z,1011.33
2017-01-28T02:24:04.448Z,1011.37
2017-01-28T02:24:30.604Z,1011.37
2017-01-28T02:24:56.738Z,1011.37
2017-01-28T02:25:22.832Z,1011.37
2017-01-28T02:25:48.974Z,1011.41
2017-01-28T02:26:15.088Z,1011.38
2017-01-28T02:26:41.246Z,1011.36
2017-01-28T02:27:07.390Z,1011.36
2017-01-28T02:27:33.583Z,1011.31
2017-01-28T02:27:59.730Z,1011.37
2017-01-28T02:28:25.870Z,1011.37
2017-01-28T02:28:51.987Z,1011.34
2017-01-28T02:29:18.105Z,1011.38
2017-01-28T02:29:44.210Z,1011.35
2017-01-28T02:30:10.364Z,1011.31
2017-01-28T02:30:36.535Z,1011.37
2017-01-28T02:31:02.696Z,1011.31
2017-01-28T02:31:28.843Z,1011.31
2017-01-28T02:31:54.956Z,1011.29
2017-01-28T02:32:21.093Z,1011.29
2017-01-28T02:32:47.317Z,1011.31
2017-01-28T02:33:13.440Z,1011.33
2017-01-28T02:33:39.593Z,1011.34
2017-01-28T02:34:05.784Z,1011.3
2017-01-28T02:34:31.979Z,1011.31
2017-01-28T02:34:58.135Z,1011.32
2017-01-28T02:35:24.229Z,1011.31
2017-01-28T02:35:50.387Z,1011.32
2017-01-28T02:36:16.577Z,1011.31
2017-01-28T02:36:42.694Z,1011.29
2017-01-28T02:37:08.796Z,1011.34
2017-01-28T02:37:35.003Z,1011.31
2017-01-28T02:38:01.166Z,1011.28
2017-01-28T02:38:27.343Z,1011.29
2017-01-28T02:38:53.525Z,1011.31
2017-01-28T02:39:19.671Z,1011.31
2017-01-28T02:39:45.809Z,1011.31
2017-01-28T02:40:11.918Z,1011.35
2017-01-28T02:40:38.048Z,1011.34
2017-01-28T02:41:04.244Z,1011.33
2017-01-28T02:41:30.380Z,1011.32
2017-01-28T02:41:56.481Z,1011.31
2017-01-28T02:42:22.648Z,1011.36
2017-01-28T02:42:48.818Z,1011.33
2017-01-28T02:43:14.937Z,1011.35
2017-01-28T02:43:41.138Z,1011.33
2017-01-28T02:44:07.259Z,1011.34
2017-01-28T02:44:33.358Z,1011.33
2017-01-28T02:44:59.486Z,1011.32
2017-01-28T02:45:25.632Z,1011.3
2017-01-28T02:45:51.772Z,1011.29
2017-01-28T02:46:17.906Z,1011.3
2017-01-28T02:46:44.055Z,1011.29
2017-01-28T02:47:10.226Z,1011.32
2017-01-28T02:47:36.375Z,1011.28
2017-01-28T02:48:02.484Z,1011.31
2017-01-28T02:48:28.633Z,1011.33
2017-01-28T02:48:54.842Z,1011.36
2017-01-28T02:49:20.990Z,1011.34
2017-01-28T02:49:47.172Z,1011.33
2017-01-28T02:50:13.325Z,1011.33
2017-01-28T02:50:39.487Z,1011.34
2017-01-28T02:51:05.590Z,1011.37
2017-01-28T02:51:31.729Z,1011.37
2017-01-28T02:51:57.867Z,1011.36
2017-01-28T02:52:24.017Z,1011.38
2017-01-28T02:52:50.153Z,1011.34
2017-01-28T02:53:16.296Z,1011.36
2017-01-28T02:53:42.431Z,1011.33
2017-01-28T02:54:08.516Z,1011.39
2017-01-28T02:54:34.717Z,1011.34
2017-01-28T02:55:00.871Z,1011.34
2017-01-28T02:55:26.989Z,1011.36
2017-01-28T02:55:53.175Z,1011.36
2017-01-28T02:56:19.310Z,1011.39
2017-01-28T02:56:45.424Z,1011.39
2017-01-28T02:57:11.525Z,1011.4
2017-01-28T02:57:37.685Z,1011.33
2017-01-28T02:58:03.802Z,1011.38
2017-01-28T02:58:29.946Z,1011.36
2017-01-28T02:58:56.111Z,1011.3
2017-01-28T02:59:22.234Z,1011.33
2017-01-28T02:59:48.394Z,1011.37
2017-01-28T03:00:14.534Z,1011.38
2017-01-28T03:00:40.657Z,1011.33
2017-01-28T03:01:06.803Z,1011.37
2017-01-28T03:01:32.937Z,1011.37
2017-01-28T03:01:59.026Z,1011.35
2017-01-28T03:02:25.222Z,1011.37
2017-01-28T03:02:51.378Z,1011.35
2017-01-28T03:03:17.473Z,1011.35
2017-01-28T03:03:43.666Z,1011.35
2017-01-28T03:04:09.789Z,1011.37
2017-01-28T03:04:35.939Z,1011.38
2017-01-28T03:05:02.095Z,1011.38
2017-01-28T03:05:28.207Z,1011.38
2017-01-28T03:05:54.339Z,1011.39
2017-01-28T03:06:20.501Z,1011.37
2017-01-28T03:06:46.599Z,1011.39
2017-01-28T03:07:12.721Z,1011.32
2017-01-28T03:07:38.940Z,1011.37
2017-01-28T03:08:05.060Z,1011.36
2017-01-28T03:08:31.217Z,1011.34
2017-01-28T03:08:57.374Z,1011.36
2017-01-28T03:09:23.513Z,1011.34
2017-01-28T03:09:49.669Z,1011.33
2017-01-28T03:10:15.844Z,1011.32
2017-01-28T03:10:41.928Z,1011.32
2017-01-28T03:11:08.070Z,1011.33
2017-01-28T03:11:34.176Z,1011.32
2017-01-28T03:12:00.275Z,1011.32
2017-01-28T03:12:26.417Z,1011.3
2017-01-28T03:12:52.574Z,1011.3
2017-01-28T03:13:18.705Z,1011.3
2017-01-28T03:13:44.840Z,1011.29
2017-01-28T03:14:10.955Z,1011.26
2017-01-28T03:14:37.079Z,1011.28
2017-01-28T03:15:03.209Z,1011.25
2017-01-28T03:15:29.415Z,1011.27
2017-01-28T03:15:55.557Z,1011.27
2017-01-28T03:16:21.703Z,1011.24
2017-01-28T03:16:47.827Z,1011.23
2017-01-28T03:17:13.967Z,1011.24
2017-01-28T03:17:40.103Z,1011.26
2017-01-28T03:18:06.203Z,1011.25
2017-01-28T03:18:32.332Z,1011.26
2017-01-28T03:18:58.453Z,1011.26
2017-01-28T03:19:24.582Z,1011.26
2017-01-28T03:19:50.712Z,1011.24
2017-01-28T03:20:16.812Z,1011.25
2017-01-28T03:20:42.999Z,1011.23
2017-01-28T03:21:09.137Z,1011.25
2017-01-28T03:21:35.298Z,1011.28
2017-01-28T03:22:01.415Z,1011.26
2017-01-28T03:22:27.546Z,1011.3
2017-01-28T03:22:53.703Z,1011.26
2017-01-28T03:23:19.819Z,1011.29
2017-01-28T03:23:45.971Z,1011.27
2017-01-28T03:24:12.123Z,1011.28
2017-01-28T03:24:38.285Z,1011.26
2017-01-28T03:25:04.380Z,1011.31
2017-01-28T03:25:30.502Z,1011.24
2017-01-28T03:25:56.662Z,1011.27
2017-01-28T03:26:22.832Z,1011.26
2017-01-28T03:26:48.915Z,1011.22
2017-01-28T03:27:15.076Z,1011.24
2017-01-28T03:27:41.230Z,1011.26
2017-01-28T03:28:07.324Z,1011.25
2017-01-28T03:28:33.445Z,1011.26
2017-01-28T03:28:59.611Z,1011.23
2017-01-28T03:29:25.707Z,1011.22
2017-01-28T03:29:51.867Z,1011.24
2017-01-28T03:30:18.012Z,1011.23
2017-01-28T03:30:44.163Z,1011.25
2017-01-28T03:31:10.363Z,1011.24
2017-01-28T03:31:36.538Z,1011.27
2017-01-28T03:32:02.671Z,1011.23
2017-01-28T03:32:28.839Z,1011.2
2017-01-28T03:32:54.988Z,1011.23
2017-01-28T03:33:21.136Z,1011.24
2017-01-28T03:33:47.272Z,1011.24
2017-01-28T03:34:13.370Z,1011.27
2017-01-28T03:34:39.509Z,1011.24
2017-01-28T03:35:05.683Z,1011.27
2017-01-28T03:35:31.802Z,1011.22
2017-01-28T03:35:57.987Z,1011.24
2017-01-28T03:36:24.110Z,1011.22
2017-01-28T03:36:50.223Z,1011.23
2017-01-28T03:37:16.396Z,1011.23
2017-01-28T03:37:42.552Z,1011.23
2017-01-28T03:38:08.612Z,1011.28
2017-01-28T03:38:34.739Z,1011.27
2017-01-28T03:39:00.839Z,1011.28
2017-01-28T03:39:26.983Z,1011.24
2017-01-28T03:39:53.111Z,1011.27
2017-01-28T03:40:19.278Z,1011.24
2017-01-28T03:40:45.367Z,1011.26
2017-01-28T03:41:11.519Z,1011.27
2017-01-28T03:41:37.677Z,1011.26
2017-01-28T03:42:03.793Z,1011.28
2017-01-28T03:42:29.888Z,1011.24
2017-01-28T03:42:56.020Z,1011.24
2017-01-28T03:43:22.152Z,1011.2
2017-01-28T03:43:48.261Z,1011.22
2017-01-28T03:44:14.371Z,1011.24
2017-01-28T03:44:40.535Z,1011.25
2017-01-28T03:45:06.703Z,1011.27
2017-01-28T03:45:32.835Z,1011.27
2017-01-28T03:45:59.000Z,1011.26
2017-01-28T03:46:25.098Z,1011.25
2017-01-28T03:46:51.241Z,1011.28
2017-01-28T03:47:17.358Z,1011.27
2017-01-28T03:47:43.520Z,1011.24
2017-01-28T03:48:09.650Z,1011.27
2017-01-28T03:48:35.736Z,1011.27
2017-01-28T03:49:01.925Z,1011.24
2017-01-28T03:49:28.107Z,1011.24
2017-01-28T03:49:54.222Z,1011.25
2017-01-28T03:50:20.352Z,1011.26
2017-01-28T03:50:46.557Z,1011.25
2017-01-28T03:51:12.700Z,1011.26
2017-01-28T03:51:38.867Z,1011.25
2017-01-28T03:52:05.021Z,1011.24
2017-01-28T03:52:31.231Z,1011.23
2017-01-28T03:52:57.329Z,1011.28
2017-01-28T03:53:23.417Z,1011.24
2017-01-28T03:53:49.525Z,1011.2
2017-01-28T03:54:15.666Z,1011.24
2017-01-28T03:54:41.774Z,1011.24
2017-01-28T03:55:07.922Z,1011.21
2017-01-28T03:55:34.056Z,1011.26
2017-01-28T03:56:00.149Z,1011.23
2017-01-28T03:56:26.291Z,1011.24
2017-01-28T03:56:52.467Z,1011.21
2017-01-28T03:57:18.593Z,1011.26
2017-01-28T03:57:44.726Z,1011.24
2017-01-28T03:58:10.868Z,1011.3
2017-01-28T03:58:37.020Z,1011.26
2017-01-28T03:59:03.188Z,1011.29
2017-01-28T03:59:29.329Z,1011.3
2017-01-28T03:59:55.449Z,1011.32
2017-01-28T04:00:21.617Z,1011.31
2017-01-28T04:00:47.741Z,1011.31
2017-01-28T04:01:13.901Z,1011.29
2017-01-28T04:01:40.099Z,1011.28
2017-01-28T04:02:06.217Z,1011.29
2017-01-28T04:02:32.353Z,1011.31
2017-01-28T04:02:58.544Z,1011.28
2017-01-28T04:03:24.699Z,1011.26
2017-01-28T04:03:50.844Z,1011.27
2017-01-28T04:04:17.047Z,1011.28
2017-01-28T04:04:43.210Z,1011.31
2017-01-28T04:05:09.319Z,1011.29
2017-01-28T04:05:35.476Z,1011.27
2017-01-28T04:06:01.610Z,1011.3
2017-01-28T04:06:27.703Z,1011.29
2017-01-28T04:06:53.886Z,1011.31
2017-01-28T04:07:20.001Z,1011.31
2017-01-28T04:07:46.183Z,1011.3
2017-01-28T04:08:12.267Z,1011.34
2017-01-28T04:08:38.398Z,1011.31
2017-01-28T04:09:04.548Z,1011.3
2017-01-28T04:09:30.762Z,1011.37
2017-01-28T04:09:56.881Z,1011.29
2017-01-28T04:10:23.049Z,1011.31
2017-01-28T04:10:49.219Z,1011.31
2017-01-28T04:11:15.357Z,1011.3
2017-01-28T04:11:41.531Z,1011.3
2017-01-28T04:12:07.692Z,1011.28
2017-01-28T04:12:33.842Z,1011.27
2017-01-28T04:13:00.003Z,1011.29
2017-01-28T04:13:26.173Z,1011.27
2017-01-28T04:13:52.301Z,1011.28
2017-01-28T04:14:18.401Z,1011.25
2017-01-28T04:14:44.545Z,1011.28
2017-01-28T04:15:10.694Z,1011.26
2017-01-28T04:15:36.858Z,1011.25
2017-01-28T04:16:03.018Z,1011.25
2017-01-28T04:16:29.129Z,1011.23
2017-01-28T04:16:55.269Z,1011.26
2017-01-28T04:17:21.365Z,1011.24
2017-01-28T04:17:47.506Z,1011.27
2017-01-28T04:18:13.668Z,1011.27
2017-01-28T04:18:39.775Z,1011.26
2017-01-28T04:19:05.918Z,1011.25
2017-01-28T04:19:32.065Z,1011.24
2017-01-28T04:19:58.219Z,1011.24
2017-01-28T04:20:24.431Z,1011.26
2017-01-28T04:20:50.532Z,1011.29
2017-01-28T04:21:16.678Z,1011.21
2017-01-28T04:21:42.840Z,1011.27
2017-01-28T04:22:08.982Z,1011.24
2017-01-28T04:22:35.098Z,1011.25
2017-01-28T04:23:01.225Z,1011.25
2017-01-28T04:23:27.355Z,1011.21
2017-01-28T04:23:53.494Z,1011.25
2017-01-28T04:24:19.649Z,1011.25
2017-01-28T04:24:45.812Z,1011.27
2017-01-28T04:25:11.956Z,1011.25
2017-01-28T04:25:38.074Z,1011.29
2017-01-28T04:26:04.183Z,1011.24
2017-01-28T04:26:30.335Z,1011.25
2017-01-28T04:26:56.496Z,1011.21
2017-01-28T04:27:22.606Z,1011.2
2017-01-28T04:27:48.705Z,1011.23
2017-01-28T04:28:14.795Z,1011.24
2017-01-28T04:28:40.977Z,1011.21
2017-01-28T04:29:07.141Z,1011.21
2017-01-28T04:29:33.227Z,1011.22
2017-01-28T04:29:59.352Z,1011.22
2017-01-28T04:30:25.484Z,1011.22
2017-01-28T04:30:51.604Z,1011.19
2017-01-28T04:31:17.737Z,1011.19
2017-01-28T04:31:43.903Z,1011.21
2017-01-28T04:32:10.027Z,1011.21
2017-01-28T04:32:36.193Z,1011.24
2017-01-28T04:33:02.324Z,1011.26
2017-01-28T04:33:28.478Z,1011.19
2017-01-28T04:33:54.582Z,1011.2
2017-01-28T04:34:20.697Z,1011.24
2017-01-28T04:34:46.856Z,1011.24
2017-01-28T04:35:13.051Z,1011.23
2017-01-28T04:35:39.170Z,1011.22
2017-01-28T04:36:05.286Z,1011.25
2017-01-28T04:36:31.451Z,1011.21
2017-01-28T04:36:57.611Z,1011.2
2017-01-28T04:37:23.738Z,1011.28
2017-01-28T04:37:49.884Z,1011.28
2017-01-28T04:38:16.003Z,1011.25
2017-01-28T04:38:42.144Z,1011.23
2017-01-28T04:39:08.264Z,1011.22
2017-01-28T04:39:34.354Z,1011.23
2017-01-28T04:40:00.500Z,1011.21
2017-01-28T04:40:26.648Z,1011.22
2017-01-28T04:40:52.765Z,1011.22
2017-01-28T04:41:18.955Z,1011.2
2017-01-28T04:41:45.082Z,1011.24
2017-01-28T04:42:11.201Z,1011.2
2017-01-28T04:42:37.346Z,1011.27
2017-01-28T04:43:03.466Z,1011.25
2017-01-28T04:43:29.571Z,1011.27
2017-01-28T04:43:55.669Z,1011.26
2017-01-28T04:44:21.805Z,1011.25
2017-01-28T04:44:47.938Z,1011.24
2017-01-28T04:45:14.070Z,1011.22
2017-01-28T04:45:40.191Z,1011.22
2017-01-28T04:46:06.313Z,1011.26
2017-01-28T04:46:32.450Z,1011.27
2017-01-28T04:46:58.561Z,1011.27
2017-01-28T04:47:24.715Z,1011.29
2017-01-28T04:47:50.842Z,1011.27
2017-01-28T04:48:16.980Z,1011.25
2017-01-28T04:48:43.109Z,1011.27
2017-01-28T04:49:09.221Z,1011.28
2017-01-28T04:49:35.360Z,1011.27
2017-01-28T04:50:01.495Z,1011.29
2017-01-28T04:50:27.605Z,1011.27
2017-01-28T04:50:53.736Z,1011.28
2017-01-28T04:51:19.875Z,1011.26
2017-01-28T04:51:45.990Z,1011.3
2017-01-28T04:52:12.089Z,1011.27
2017-01-28T04:52:38.279Z,1011.29
2017-01-28T04:53:04.375Z,1011.3
2017-01-28T04:53:30.508Z,1011.29
2017-01-28T04:53:56.617Z,1011.24
2017-01-28T04:54:22.741Z,1011.27
2017-01-28T04:54:48.905Z,1011.29
2017-01-28T04:55:15.058Z,1011.3
2017-01-28T04:55:41.209Z,1011.29
2017-01-28T04:56:07.399Z,1011.28
2017-01-28T04:56:33.517Z,1011.32
2017-01-28T04:56:59.679Z,1011.28
2017-01-28T04:57:25.825Z,1011.27
2017-01-28T04:57:51.977Z,1011.29
2017-01-28T04:58:18.071Z,1011.27
2017-01-28T04:58:44.227Z,1011.27
2017-01-28T04:59:10.369Z,1011.26
2017-01-28T04:59:36.544Z,1011.29
2017-01-28T05:00:02.663Z,1011.26
2017-01-28T05:00:28.778Z,1011.27
2017-01-28T05:00:54.891Z,1011.31
2017-01-28T05:01:20.987Z,1011.26
2017-01-28T05:01:47.076Z,1011.28
2017-01-28T05:02:13.262Z,1011.27
2017-01-28T05:02:39.424Z,1011.29
2017-01-28T05:03:05.558Z,1011.28
2017-01-28T05:03:31.688Z,1011.28
2017-01-28T05:03:57.818Z,1011.28
2017-01-28T05:04:23.969Z,1011.27
2017-01-28T05:04:50.123Z,1011.28
2017-01-28T05:05:16.232Z,1011.27
2017-01-28T05:05:42.393Z,1011.27
2017-01-28T05:06:08.521Z,1011.3
2017-01-28T05:06:34.631Z,1011.25
2017-01-28T05:07:00.734Z,1011.28
2017-01-28T05:07:26.873Z,1011.3
2017-01-28T05:07:52.955Z,1011.28
2017-01-28T05:08:19.058Z,1011.27
2017-01-28T05:08:45.196Z,1011.25
2017-01-28T05:09:11.288Z,1011.24
2017-01-28T05:09:37.440Z,1011.27
2017-01-28T05:10:03.595Z,1011.26
2017-01-28T05:10:29.691Z,1011.28
2017-01-28T05:10:55.806Z,1011.26
2017-01-28T05:11:21.943Z,1011.29
2017-01-28T05:11:48.041Z,1011.28
2017-01-28T05:12:14.180Z,1011.26
2017-01-28T05:12:40.367Z,1011.28
2017-01-28T05:13:06.526Z,1011.27
2017-01-28T05:13:32.611Z,1011.29
2017-01-28T05:13:58.801Z,1011.28
2017-01-28T05:14:24.932Z,1011.28
2017-01-28T05:14:51.088Z,1011.3
2017-01-28T05:15:17.233Z,1011.28
2017-01-28T05:15:43.384Z,1011.28
2017-01-28T05:16:09.527Z,1011.3
2017-01-28T05:16:35.677Z,1011.27
2017-01-28T05:17:01.801Z,1011.29
2017-01-28T05:17:27.895Z,1011.28